Pagina principale
METAR-TAF:

METAR-TAF

Aeroporti :

Aeroporto di Karlsruhe-Baden-Baden

Baden-Baden, Germania

latitudine: 48-46-43N, longitudine: 008-04-47E, altezza: 124 m

Osservazione

Il bollettino è stato emesso 28 minuti fa, alle 16:20 UTC
Vento 4 kt da ovest, variando fra ovest/sud-ovest e nord-ovest
Temperature 21°C
Umidità 38%
Pressione 1016 hPa
Visibilità 10 km o più
nessuna nube inferiore a 1500 m e nessun cumulonembo

METAR: EDSB 131620Z 28004KT 240V320 CAVOK 21/06 Q1016

Ora: 18:48 (16:48 UTC)

Previsione

Il bollettino è stato emesso 5 ore e 48 minuti fa, alle 11:00 UTC
Previsione valida dal 13 alle 12 UTC al 14 alle 12 UTC
Vento 4 kt da ovest
Visibilità 10 km o più
nessuna nube inferiore a 1500 m e nessun cumulonembo
Evoluzione graduale
dal 14 alle 07 UTC al 14 alle 09 UTC
Vento 8 kt da sud/sud-ovest

TAF: EDSB 131100Z 1312/1412 28004KT CAVOK BECMG 1407/1409 20008KT

Osservazioni e previsioni meteorologiche di più di 4000 aeroporti (messaggi METAR e TAF).

Le stazioni disponibili sono rappresentate dai dischi gialli e rossi sulla carta.

Puntare il mouse per vedere il nome della stazione.

Clicca sopra per visualizzare le osservazioni e previsioni meteorologiche.

Per cambiare la mappa : fare clic sui pulsanti verdi con una croce nera per ingrandire, il pulsante verde con un trattino per diminuire, o sulla freccia verde per le mappe adiacenti.


METAR-TAF: